Flight Track Log - Related Links

Times and Time Zones

All times are in EDT time to prevent confusion due to time zone crossing. See the SWA378 flight status page for this flight to view local times or setup timezone preferences in your user account.

Time Position Orientation Groundspeed Altitude Reporting Facility
EDT Latitude Longitude Course Direction KTS MPH feet Rate Location/Type
Fri 11:12:54 AM 37.3833 -121.9500 138° Southeast 174 200 1,400  Level Northern Cal TRACON
Fri 11:13:48 AM 37.4333 -121.9833 332° Northwest 213 245 2,700 1,667 Climbing Northern Cal TRACON
Fri 11:14:42 AM 37.4500 -121.9167 73° East 240 276 4,400 1,684 Climbing Northern Cal TRACON
Fri 11:15:42 AM 37.4000 -121.8667 142° Southeast 258 297 5,900 2,350 Climbing Northern Cal TRACON
Fri 11:16:42 AM 37.3333 -121.8000 142° Southeast 300 345 9,100 3,041 Climbing Northern Cal TRACON
Fri 11:18:00 AM 37.0325 -121.4706 138° Southeast  Level Estimated
Fri 11:18:10 AM 37.2389 -121.6900 137° Southeast 309 356 13,400  Level Oakland Center
Fri 11:19:11 AM 37.1700 -121.6133 138° Southeast 325 374 16,000 2,410 Climbing Oakland Center
Fri 11:20:12 AM 37.0978 -121.5344 139° Southeast 338 389 18,300 2,311 Climbing Oakland Center
Fri 11:21:13 AM 37.0311 -121.4597 138° Southeast 350 403 20,700 1,951 Climbing Oakland Center
Fri 11:22:15 AM 36.9553 -121.3764 139° Southeast 360 414 22,300 1,902 Climbing Oakland Center
Fri 11:23:16 AM 36.8589 -121.2722 139° Southeast 378 435 24,600 1,854 Climbing Oakland Center
Fri 11:24:18 AM 36.7769 -121.1833 139° Southeast 387 445 26,100 1,366 Climbing Oakland Center
Fri 11:25:19 AM 36.6889 -121.0914 140° Southeast 399 459 27,400 1,623 Climbing Oakland Center
Fri 11:26:20 AM 36.5994 -120.9939 139° Southeast 418 481 29,400 1,854 Climbing Oakland Center
Fri 11:27:22 AM 36.5131 -120.8989 139° Southeast 417 480 31,200 1,561 Climbing Oakland Center
Fri 11:28:23 AM 36.4247 -120.8044 139° Southeast 418 481 32,600 1,220 Climbing Oakland Center
Fri 11:29:25 AM 36.3350 -120.7069 139° Southeast 424 488 33,700 1,073 Climbing Oakland Center
Fri 11:30:26 AM 36.2433 -120.6097 139° Southeast 430 495 34,800 1,279 Climbing Oakland Center
Fri 11:31:27 AM 36.1531 -120.5047 137° Southeast 438 504 36,300 1,073 Climbing Oakland Center
Fri 11:32:29 AM 36.0656 -120.3528 125° Southeast 453 521 37,000 341 Climbing Oakland Center
Fri 11:33:30 AM 35.9906 -120.2283 127° Southeast 451 519 37,000 -49 Level Oakland Center
Fri 11:34:32 AM 35.9142 -120.1025 127° Southeast 455 524 36,900  Descending Oakland Center
Fri 11:35:33 AM 35.8381 -119.9800 127° Southeast 451 519 37,000 49 Climbing Oakland Center
Fri 11:36:35 AM 35.7631 -119.8567 127° Southeast 448 516 37,000  Level Oakland Center
Fri 11:37:36 AM 35.6853 -119.7328 128° Southeast 453 521 37,000 -49 Level Oakland Center
Fri 11:38:38 AM 35.6089 -119.6081 127° Southeast 455 524 36,900  Descending Oakland Center
Fri 11:39:39 AM 35.5314 -119.4853 128° Southeast 454 522 37,000 49 Climbing Oakland Center
Fri 11:40:41 AM 35.4553 -119.3614 127° Southeast 454 522 37,000 -49 Level Oakland Center
Fri 11:41:42 AM 35.3761 -119.2372 128° Southeast 460 529 36,900  Descending Oakland Center
Fri 11:42:43 AM 35.2853 -119.0897 127° Southeast 454 522 37,000  Climbing Oakland Center
Fri 11:43:45 AM 35.2100 -118.9706 128° Southeast 446 513 36,900 -49 Descending Oakland Center
Fri 11:44:46 AM 35.1342 -118.8511 128° Southeast 445 512 36,900 -195 Level Oakland Center
Fri 11:45:48 AM 35.0606 -118.7322 127° Southeast 441 507 36,500 -1,854 Descending Oakland Center
Fri 11:46:49 AM 34.9850 -118.6114 127° Southeast 445 512 33,100 -3,083 Descending Oakland Center
Fri 11:48:12 AM 34.8828 -118.4542 128° Southeast 449 517 29,100 -2,731 Descending Los Angeles Center
Fri 11:49:14 AM 34.8097 -118.3419 128° Southeast 431 496 26,500 -2,516 Descending Los Angeles Center
Fri 11:50:16 AM 34.7275 -118.2131 128° Southeast 407 468 23,900 -1,452 Descending Los Angeles Center
Fri 11:52:20 AM 34.6042 -118.0081 126° Southeast 379 436 22,000 -1,059 Descending Los Angeles Center
Fri 11:53:23 AM 34.5533 -117.8944 118° Southeast 385 443 20,600 -1,728 Descending Los Angeles Center
Fri 11:54:25 AM 34.5028 -117.7847 119° Southeast 379 436 18,400 -2,323 Descending Los Angeles Center
Fri 11:55:27 AM 34.4461 -117.6608 119° Southeast 356 410 15,800 -2,032 Descending Los Angeles Center
Fri 11:56:29 AM 34.3997 -117.5622 120° Southeast 340 391 14,200 -1,742 Descending Los Angeles Center
Fri 11:57:31 AM 34.3594 -117.4678 117° Southeast 300 345 12,200 -1,645 Descending Los Angeles Center
Fri 11:58:33 AM 34.3200 -117.3900 122° Southeast 306 352 10,800 -1,645 Descending Los Angeles Center
Fri 11:59:35 AM 34.2328 -117.3761 173° South 270 311 8,800 -2,274 Descending Los Angeles Center
Fri 12:00:37 PM 34.1719 -117.4206 211° Southwest 254 292 6,100 -2,274 Descending Los Angeles Center
Fri 12:01:39 PM 34.1089 -117.4639 210° Southwest 258 297 4,100 -1,581 Descending Los Angeles Center
Fri 12:02:46 PM 34.0500 -117.4833 195° South 182 209 2,700 -1,134 Descending Southern California TRACON
Fri 12:03:46 PM 34.0500 -117.5333 270° West 141 162 1,700 -1,000 Descending Southern California TRACON
Fri 12:06:00 PM 34.0500 -117.6000 270° West  Level FlightAware Approximate
Fri 12:13:00 PM 34.0560 -117.6012 270° West  Level Estimated

Login

Don't have an account? Register now (free) for customized features, flight alerts, and more!